sensor_id;sensor_type;location;lat;lon;timestamp;P1;durP1;ratioP1;P2;durP2;ratioP2
6336;SDS011;3201;49.962;11.618;2023-02-28T00:00:46;1.97;;;0.90;;
6336;SDS011;3201;49.962;11.618;2023-02-28T00:03:12;1.87;;;0.80;;
6336;SDS011;3201;49.962;11.618;2023-02-28T00:05:37;3.67;;;1.00;;
6336;SDS011;3201;49.962;11.618;2023-02-28T00:08:03;1.37;;;0.60;;
6336;SDS011;3201;49.962;11.618;2023-02-28T00:10:29;0.70;;;0.53;;
6336;SDS011;3201;49.962;11.618;2023-02-28T00:12:55;1.10;;;0.80;;
6336;SDS011;3201;49.962;11.618;2023-02-28T00:15:24;1.17;;;1.00;;
6336;SDS011;3201;49.962;11.618;2023-02-28T00:17:49;1.97;;;0.80;;
6336;SDS011;3201;49.962;11.618;2023-02-28T00:20:15;1.20;;;0.70;;
6336;SDS011;3201;49.962;11.618;2023-02-28T00:22:42;1.87;;;0.77;;
6336;SDS011;3201;49.962;11.618;2023-02-28T00:25:10;0.90;;;0.40;;
6336;SDS011;3201;49.962;11.618;2023-02-28T00:27:37;0.70;;;0.60;;
6336;SDS011;3201;49.962;11.618;2023-02-28T00:30:03;1.77;;;0.90;;
6336;SDS011;3201;49.962;11.618;2023-02-28T00:32:30;0.83;;;0.70;;
6336;SDS011;3201;49.962;11.618;2023-02-28T00:34:55;1.10;;;0.60;;
6336;SDS011;3201;49.962;11.618;2023-02-28T00:37:21;0.80;;;0.63;;
6336;SDS011;3201;49.962;11.618;2023-02-28T00:39:46;1.07;;;0.70;;
6336;SDS011;3201;49.962;11.618;2023-02-28T00:42:11;1.13;;;0.97;;
6336;SDS011;3201;49.962;11.618;2023-02-28T00:44:37;0.70;;;0.67;;
6336;SDS011;3201;49.962;11.618;2023-02-28T00:47:02;3.50;;;0.87;;
6336;SDS011;3201;49.962;11.618;2023-02-28T00:49:28;1.07;;;0.90;;
6336;SDS011;3201;49.962;11.618;2023-02-28T00:51:53;0.90;;;0.70;;
6336;SDS011;3201;49.962;11.618;2023-02-28T00:54:20;1.83;;;0.80;;
6336;SDS011;3201;49.962;11.618;2023-02-28T00:56:45;1.00;;;0.80;;
6336;SDS011;3201;49.962;11.618;2023-02-28T00:59:11;0.70;;;0.60;;
6336;SDS011;3201;49.962;11.618;2023-02-28T01:01:37;1.80;;;0.80;;
6336;SDS011;3201;49.962;11.618;2023-02-28T01:04:03;0.80;;;0.70;;
6336;SDS011;3201;49.962;11.618;2023-02-28T01:06:28;0.97;;;0.70;;
6336;SDS011;3201;49.962;11.618;2023-02-28T01:08:53;0.80;;;0.67;;
6336;SDS011;3201;49.962;11.618;2023-02-28T01:11:19;1.57;;;0.90;;
6336;SDS011;3201;49.962;11.618;2023-02-28T01:13:44;1.23;;;0.77;;
6336;SDS011;3201;49.962;11.618;2023-02-28T01:16:11;0.80;;;0.67;;
6336;SDS011;3201;49.962;11.618;2023-02-28T01:18:37;0.93;;;0.80;;
6336;SDS011;3201;49.962;11.618;2023-02-28T01:21:03;1.23;;;0.60;;
6336;SDS011;3201;49.962;11.618;2023-02-28T01:23:30;0.97;;;0.70;;
6336;SDS011;3201;49.962;11.618;2023-02-28T01:25:55;0.83;;;0.70;;
6336;SDS011;3201;49.962;11.618;2023-02-28T01:28:20;1.13;;;0.90;;
6336;SDS011;3201;49.962;11.618;2023-02-28T01:30:47;1.10;;;0.87;;
6336;SDS011;3201;49.962;11.618;2023-02-28T01:33:14;1.10;;;0.80;;
6336;SDS011;3201;49.962;11.618;2023-02-28T01:35:39;0.93;;;0.80;;
6336;SDS011;3201;49.962;11.618;2023-02-28T01:38:05;1.30;;;0.70;;
6336;SDS011;3201;49.962;11.618;2023-02-28T01:40:30;0.83;;;0.70;;
6336;SDS011;3201;49.962;11.618;2023-02-28T01:42:55;0.93;;;0.60;;
6336;SDS011;3201;49.962;11.618;2023-02-28T01:47:54;1.17;;;0.70;;
6336;SDS011;3201;49.962;11.618;2023-02-28T01:50:23;1.10;;;0.73;;
6336;SDS011;3201;49.962;11.618;2023-02-28T01:52:52;1.40;;;0.90;;
6336;SDS011;3201;49.962;11.618;2023-02-28T01:55:19;1.27;;;1.03;;
6336;SDS011;3201;49.962;11.618;2023-02-28T01:57:46;1.00;;;0.70;;
6336;SDS011;3201;49.962;11.618;2023-02-28T02:00:15;1.10;;;0.90;;
6336;SDS011;3201;49.962;11.618;2023-02-28T02:02:43;1.43;;;0.97;;
6336;SDS011;3201;49.962;11.618;2023-02-28T02:05:17;1.30;;;0.90;;
6336;SDS011;3201;49.962;11.618;2023-02-28T02:07:47;0.87;;;0.70;;
6336;SDS011;3201;49.962;11.618;2023-02-28T02:10:17;0.87;;;0.70;;
6336;SDS011;3201;49.962;11.618;2023-02-28T02:15:34;0.70;;;0.53;;
6336;SDS011;3201;49.962;11.618;2023-02-28T02:18:09;1.70;;;0.90;;
6336;SDS011;3201;49.962;11.618;2023-02-28T02:21:16;0.80;;;0.80;;
6336;SDS011;3201;49.962;11.618;2023-02-28T02:28:09;1.13;;;1.00;;
6336;SDS011;3201;49.962;11.618;2023-02-28T02:31:02;0.63;;;0.60;;
6336;SDS011;3201;49.962;11.618;2023-02-28T02:33:02;1.20;;;1.00;;
6336;SDS011;3201;49.962;11.618;2023-02-28T02:38:08;1.23;;;0.80;;
6336;SDS011;3201;49.962;11.618;2023-02-28T02:40:38;1.23;;;0.77;;
6336;SDS011;3201;49.962;11.618;2023-02-28T02:45:42;0.70;;;0.63;;
6336;SDS011;3201;49.962;11.618;2023-02-28T02:48:11;1.50;;;1.10;;
6336;SDS011;3201;49.962;11.618;2023-02-28T02:50:40;1.00;;;0.70;;
6336;SDS011;3201;49.962;11.618;2023-02-28T02:53:08;0.70;;;0.50;;
6336;SDS011;3201;49.962;11.618;2023-02-28T02:55:34;0.70;;;0.63;;
6336;SDS011;3201;49.962;11.618;2023-02-28T02:58:04;1.97;;;0.67;;
6336;SDS011;3201;49.962;11.618;2023-02-28T03:00:34;2.20;;;0.70;;
6336;SDS011;3201;49.962;11.618;2023-02-28T03:03:02;0.80;;;0.70;;
6336;SDS011;3201;49.962;11.618;2023-02-28T03:05:30;0.93;;;0.80;;
6336;SDS011;3201;49.962;11.618;2023-02-28T03:07:59;1.27;;;0.90;;
6336;SDS011;3201;49.962;11.618;2023-02-28T03:13:00;0.93;;;0.83;;
6336;SDS011;3201;49.962;11.618;2023-02-28T03:15:35;1.00;;;0.90;;
6336;SDS011;3201;49.962;11.618;2023-02-28T03:18:08;0.87;;;0.60;;
6336;SDS011;3201;49.962;11.618;2023-02-28T03:20:39;0.97;;;0.87;;
6336;SDS011;3201;49.962;11.618;2023-02-28T03:23:30;0.83;;;0.60;;
6336;SDS011;3201;49.962;11.618;2023-02-28T03:26:04;0.90;;;0.80;;
6336;SDS011;3201;49.962;11.618;2023-02-28T03:28:41;1.47;;;0.80;;
6336;SDS011;3201;49.962;11.618;2023-02-28T03:33:43;1.10;;;1.00;;
6336;SDS011;3201;49.962;11.618;2023-02-28T03:36:19;1.00;;;0.80;;
6336;SDS011;3201;49.962;11.618;2023-02-28T03:38:54;1.77;;;1.00;;
6336;SDS011;3201;49.962;11.618;2023-02-28T03:41:24;2.10;;;1.27;;
6336;SDS011;3201;49.962;11.618;2023-02-28T03:43:54;1.27;;;0.90;;
6336;SDS011;3201;49.962;11.618;2023-02-28T03:46:23;1.10;;;1.00;;
6336;SDS011;3201;49.962;11.618;2023-02-28T03:48:51;1.97;;;0.90;;
6336;SDS011;3201;49.962;11.618;2023-02-28T03:51:22;1.40;;;1.00;;
6336;SDS011;3201;49.962;11.618;2023-02-28T03:53:50;0.90;;;0.77;;
6336;SDS011;3201;49.962;11.618;2023-02-28T03:56:19;1.10;;;0.90;;
6336;SDS011;3201;49.962;11.618;2023-02-28T03:58:49;1.00;;;0.90;;
6336;SDS011;3201;49.962;11.618;2023-02-28T04:01:24;0.80;;;0.60;;
6336;SDS011;3201;49.962;11.618;2023-02-28T04:03:53;1.00;;;0.90;;
6336;SDS011;3201;49.962;11.618;2023-02-28T04:06:19;1.53;;;0.80;;
6336;SDS011;3201;49.962;11.618;2023-02-28T04:08:46;1.10;;;1.00;;
6336;SDS011;3201;49.962;11.618;2023-02-28T04:14:00;1.20;;;0.73;;
6336;SDS011;3201;49.962;11.618;2023-02-28T04:16:27;1.67;;;1.03;;
6336;SDS011;3201;49.962;11.618;2023-02-28T04:18:52;1.30;;;0.80;;
6336;SDS011;3201;49.962;11.618;2023-02-28T04:21:17;1.40;;;0.80;;
6336;SDS011;3201;49.962;11.618;2023-02-28T04:23:45;1.00;;;0.80;;
6336;SDS011;3201;49.962;11.618;2023-02-28T04:26:11;1.30;;;0.90;;
6336;SDS011;3201;49.962;11.618;2023-02-28T04:28:36;2.10;;;0.83;;
6336;SDS011;3201;49.962;11.618;2023-02-28T04:31:03;0.90;;;0.70;;
6336;SDS011;3201;49.962;11.618;2023-02-28T04:33:29;0.97;;;0.87;;
6336;SDS011;3201;49.962;11.618;2023-02-28T04:36:04;0.80;;;0.73;;
6336;SDS011;3201;49.962;11.618;2023-02-28T04:38:32;1.00;;;0.80;;
6336;SDS011;3201;49.962;11.618;2023-02-28T04:40:58;1.20;;;0.83;;
6336;SDS011;3201;49.962;11.618;2023-02-28T04:43:25;1.23;;;0.70;;
6336;SDS011;3201;49.962;11.618;2023-02-28T04:45:51;1.00;;;0.60;;
6336;SDS011;3201;49.962;11.618;2023-02-28T04:48:17;1.20;;;0.90;;
6336;SDS011;3201;49.962;11.618;2023-02-28T04:50:42;1.80;;;1.00;;
6336;SDS011;3201;49.962;11.618;2023-02-28T04:53:08;0.60;;;0.60;;
6336;SDS011;3201;49.962;11.618;2023-02-28T04:55:33;1.30;;;0.93;;
6336;SDS011;3201;49.962;11.618;2023-02-28T04:57:59;0.97;;;0.87;;
6336;SDS011;3201;49.962;11.618;2023-02-28T05:00:24;1.07;;;0.67;;
6336;SDS011;3201;49.962;11.618;2023-02-28T05:02:50;2.00;;;0.83;;
6336;SDS011;3201;49.962;11.618;2023-02-28T05:05:15;1.70;;;1.20;;
6336;SDS011;3201;49.962;11.618;2023-02-28T05:07:43;1.23;;;0.77;;
6336;SDS011;3201;49.962;11.618;2023-02-28T05:10:09;0.83;;;0.80;;
6336;SDS011;3201;49.962;11.618;2023-02-28T05:12:35;1.00;;;0.87;;
6336;SDS011;3201;49.962;11.618;2023-02-28T05:15:00;1.33;;;0.83;;
6336;SDS011;3201;49.962;11.618;2023-02-28T05:17:27;1.40;;;0.83;;
6336;SDS011;3201;49.962;11.618;2023-02-28T05:19:52;0.93;;;0.67;;
6336;SDS011;3201;49.962;11.618;2023-02-28T05:22:17;1.27;;;1.00;;
6336;SDS011;3201;49.962;11.618;2023-02-28T05:24:43;2.60;;;1.40;;
6336;SDS011;3201;49.962;11.618;2023-02-28T05:27:08;0.97;;;0.87;;
6336;SDS011;3201;49.962;11.618;2023-02-28T05:29:34;1.07;;;0.90;;
6336;SDS011;3201;49.962;11.618;2023-02-28T05:31:59;1.17;;;0.83;;
6336;SDS011;3201;49.962;11.618;2023-02-28T05:34:24;1.27;;;1.07;;
6336;SDS011;3201;49.962;11.618;2023-02-28T05:36:50;1.07;;;0.90;;
6336;SDS011;3201;49.962;11.618;2023-02-28T05:39:15;1.73;;;1.20;;
6336;SDS011;3201;49.962;11.618;2023-02-28T05:41:41;1.10;;;0.90;;
6336;SDS011;3201;49.962;11.618;2023-02-28T05:44:06;1.20;;;1.00;;
6336;SDS011;3201;49.962;11.618;2023-02-28T05:46:32;1.27;;;1.17;;
6336;SDS011;3201;49.962;11.618;2023-02-28T05:48:57;1.53;;;1.00;;
6336;SDS011;3201;49.962;11.618;2023-02-28T05:51:25;1.73;;;1.17;;
6336;SDS011;3201;49.962;11.618;2023-02-28T05:53:50;0.70;;;0.70;;
6336;SDS011;3201;49.962;11.618;2023-02-28T05:56:15;1.00;;;0.90;;
6336;SDS011;3201;49.962;11.618;2023-02-28T05:58:41;1.33;;;1.00;;
6336;SDS011;3201;49.962;11.618;2023-02-28T06:03:51;2.10;;;1.20;;
6336;SDS011;3201;49.962;11.618;2023-02-28T06:06:17;1.00;;;0.83;;
6336;SDS011;3201;49.962;11.618;2023-02-28T06:08:42;1.57;;;1.40;;
6336;SDS011;3201;49.962;11.618;2023-02-28T06:11:09;1.27;;;1.10;;
6336;SDS011;3201;49.962;11.618;2023-02-28T06:13:34;1.57;;;0.97;;
6336;SDS011;3201;49.962;11.618;2023-02-28T06:16:01;1.03;;;0.70;;
6336;SDS011;3201;49.962;11.618;2023-02-28T06:18:26;1.73;;;1.20;;
6336;SDS011;3201;49.962;11.618;2023-02-28T06:20:52;1.10;;;0.93;;
6336;SDS011;3201;49.962;11.618;2023-02-28T06:23:19;1.63;;;1.53;;
6336;SDS011;3201;49.962;11.618;2023-02-28T06:25:45;1.07;;;0.93;;
6336;SDS011;3201;49.962;11.618;2023-02-28T06:28:10;1.73;;;1.10;;
6336;SDS011;3201;49.962;11.618;2023-02-28T06:30:36;1.67;;;1.07;;
6336;SDS011;3201;49.962;11.618;2023-02-28T06:33:02;1.40;;;1.30;;
6336;SDS011;3201;49.962;11.618;2023-02-28T06:35:28;1.77;;;1.30;;
6336;SDS011;3201;49.962;11.618;2023-02-28T06:37:53;1.30;;;1.10;;
6336;SDS011;3201;49.962;11.618;2023-02-28T06:40:18;1.53;;;1.07;;
6336;SDS011;3201;49.962;11.618;2023-02-28T06:42:44;1.93;;;1.50;;
6336;SDS011;3201;49.962;11.618;2023-02-28T06:45:10;1.50;;;1.40;;
6336;SDS011;3201;49.962;11.618;2023-02-28T06:50:05;1.27;;;1.17;;
6336;SDS011;3201;49.962;11.618;2023-02-28T06:52:31;1.00;;;0.90;;
6336;SDS011;3201;49.962;11.618;2023-02-28T06:54:56;1.10;;;0.93;;
6336;SDS011;3201;49.962;11.618;2023-02-28T06:57:28;3.50;;;1.67;;
6336;SDS011;3201;49.962;11.618;2023-02-28T06:59:57;1.00;;;0.90;;
6336;SDS011;3201;49.962;11.618;2023-02-28T07:02:23;1.63;;;1.03;;
6336;SDS011;3201;49.962;11.618;2023-02-28T07:04:48;2.33;;;1.20;;
6336;SDS011;3201;49.962;11.618;2023-02-28T07:07:13;2.63;;;1.23;;
6336;SDS011;3201;49.962;11.618;2023-02-28T07:09:39;1.90;;;1.40;;
6336;SDS011;3201;49.962;11.618;2023-02-28T07:12:04;2.33;;;1.40;;
6336;SDS011;3201;49.962;11.618;2023-02-28T07:14:29;2.00;;;1.33;;
6336;SDS011;3201;49.962;11.618;2023-02-28T07:16:55;2.27;;;1.10;;
6336;SDS011;3201;49.962;11.618;2023-02-28T07:19:20;2.70;;;1.10;;
6336;SDS011;3201;49.962;11.618;2023-02-28T07:21:45;1.90;;;1.23;;
6336;SDS011;3201;49.962;11.618;2023-02-28T07:24:11;1.87;;;1.13;;
6336;SDS011;3201;49.962;11.618;2023-02-28T07:26:36;3.60;;;1.47;;
6336;SDS011;3201;49.962;11.618;2023-02-28T07:29:01;2.80;;;1.20;;
6336;SDS011;3201;49.962;11.618;2023-02-28T07:31:27;2.50;;;1.70;;
6336;SDS011;3201;49.962;11.618;2023-02-28T07:33:52;2.20;;;1.27;;
6336;SDS011;3201;49.962;11.618;2023-02-28T07:36:18;3.23;;;1.30;;
6336;SDS011;3201;49.962;11.618;2023-02-28T07:38:45;3.00;;;1.30;;
6336;SDS011;3201;49.962;11.618;2023-02-28T07:41:13;3.47;;;1.47;;
6336;SDS011;3201;49.962;11.618;2023-02-28T07:43:40;1.90;;;1.53;;
6336;SDS011;3201;49.962;11.618;2023-02-28T07:46:06;4.13;;;1.10;;
6336;SDS011;3201;49.962;11.618;2023-02-28T07:48:33;3.90;;;1.50;;
6336;SDS011;3201;49.962;11.618;2023-02-28T07:50:58;2.07;;;1.50;;
6336;SDS011;3201;49.962;11.618;2023-02-28T07:53:24;1.70;;;1.40;;
6336;SDS011;3201;49.962;11.618;2023-02-28T07:55:50;6.23;;;1.60;;
6336;SDS011;3201;49.962;11.618;2023-02-28T07:58:15;3.57;;;2.00;;
6336;SDS011;3201;49.962;11.618;2023-02-28T08:00:40;2.43;;;1.47;;
6336;SDS011;3201;49.962;11.618;2023-02-28T08:03:06;3.50;;;1.23;;
6336;SDS011;3201;49.962;11.618;2023-02-28T08:05:32;2.33;;;1.77;;
6336;SDS011;3201;49.962;11.618;2023-02-28T08:07:58;4.73;;;1.40;;
6336;SDS011;3201;49.962;11.618;2023-02-28T08:10:23;3.17;;;1.77;;
6336;SDS011;3201;49.962;11.618;2023-02-28T08:12:49;1.33;;;1.23;;
6336;SDS011;3201;49.962;11.618;2023-02-28T08:15:14;2.60;;;1.40;;
6336;SDS011;3201;49.962;11.618;2023-02-28T08:17:40;2.10;;;1.53;;
6336;SDS011;3201;49.962;11.618;2023-02-28T08:20:05;1.60;;;1.50;;
6336;SDS011;3201;49.962;11.618;2023-02-28T08:22:31;2.37;;;1.40;;
6336;SDS011;3201;49.962;11.618;2023-02-28T08:24:56;2.30;;;1.33;;
6336;SDS011;3201;49.962;11.618;2023-02-28T08:27:21;2.70;;;1.30;;
6336;SDS011;3201;49.962;11.618;2023-02-28T08:29:47;1.50;;;1.40;;
6336;SDS011;3201;49.962;11.618;2023-02-28T08:32:12;1.73;;;1.33;;
6336;SDS011;3201;49.962;11.618;2023-02-28T08:34:38;3.83;;;1.60;;
6336;SDS011;3201;49.962;11.618;2023-02-28T08:37:04;6.47;;;1.43;;
6336;SDS011;3201;49.962;11.618;2023-02-28T08:39:29;2.20;;;1.53;;
6336;SDS011;3201;49.962;11.618;2023-02-28T08:41:55;2.87;;;1.77;;
6336;SDS011;3201;49.962;11.618;2023-02-28T08:44:20;1.70;;;1.60;;
6336;SDS011;3201;49.962;11.618;2023-02-28T08:46:45;2.87;;;1.20;;
6336;SDS011;3201;49.962;11.618;2023-02-28T08:49:11;5.87;;;1.90;;
6336;SDS011;3201;49.962;11.618;2023-02-28T08:51:36;3.60;;;1.50;;
6336;SDS011;3201;49.962;11.618;2023-02-28T08:54:03;2.77;;;1.60;;
6336;SDS011;3201;49.962;11.618;2023-02-28T08:56:28;2.20;;;1.70;;
6336;SDS011;3201;49.962;11.618;2023-02-28T08:58:54;5.93;;;1.67;;
6336;SDS011;3201;49.962;11.618;2023-02-28T09:01:22;3.27;;;1.80;;
6336;SDS011;3201;49.962;11.618;2023-02-28T09:03:49;3.70;;;1.63;;
6336;SDS011;3201;49.962;11.618;2023-02-28T09:06:16;3.40;;;1.97;;
6336;SDS011;3201;49.962;11.618;2023-02-28T09:08:42;4.90;;;2.23;;
6336;SDS011;3201;49.962;11.618;2023-02-28T09:11:07;2.50;;;1.87;;
6336;SDS011;3201;49.962;11.618;2023-02-28T09:13:33;7.63;;;2.10;;
6336;SDS011;3201;49.962;11.618;2023-02-28T09:15:59;2.60;;;1.57;;
6336;SDS011;3201;49.962;11.618;2023-02-28T09:18:26;4.50;;;1.70;;
6336;SDS011;3201;49.962;11.618;2023-02-28T09:20:51;5.30;;;2.30;;
6336;SDS011;3201;49.962;11.618;2023-02-28T09:23:17;2.23;;;1.30;;
6336;SDS011;3201;49.962;11.618;2023-02-28T09:25:46;7.07;;;1.93;;
6336;SDS011;3201;49.962;11.618;2023-02-28T09:28:12;5.00;;;2.00;;
6336;SDS011;3201;49.962;11.618;2023-02-28T09:30:40;1.50;;;1.20;;
6336;SDS011;3201;49.962;11.618;2023-02-28T09:33:05;6.90;;;2.27;;
6336;SDS011;3201;49.962;11.618;2023-02-28T09:35:31;4.20;;;1.67;;
6336;SDS011;3201;49.962;11.618;2023-02-28T09:37:56;2.13;;;1.57;;
6336;SDS011;3201;49.962;11.618;2023-02-28T09:40:23;3.37;;;1.47;;
6336;SDS011;3201;49.962;11.618;2023-02-28T09:42:51;3.33;;;1.80;;
6336;SDS011;3201;49.962;11.618;2023-02-28T09:47:47;10.63;;;2.77;;
6336;SDS011;3201;49.962;11.618;2023-02-28T09:50:17;5.17;;;2.07;;
6336;SDS011;3201;49.962;11.618;2023-02-28T09:52:46;9.73;;;2.90;;
6336;SDS011;3201;49.962;11.618;2023-02-28T09:57:44;2.23;;;2.03;;
6336;SDS011;3201;49.962;11.618;2023-02-28T10:03:43;4.33;;;2.00;;
6336;SDS011;3201;49.962;11.618;2023-02-28T10:05:30;10.93;;;2.77;;
6336;SDS011;3201;49.962;11.618;2023-02-28T10:08:00;9.47;;;3.07;;
6336;SDS011;3201;49.962;11.618;2023-02-28T10:10:37;5.40;;;1.67;;
6336;SDS011;3201;49.962;11.618;2023-02-28T10:13:07;8.60;;;2.30;;
6336;SDS011;3201;49.962;11.618;2023-02-28T10:15:42;5.37;;;2.43;;
6336;SDS011;3201;49.962;11.618;2023-02-28T10:18:12;9.07;;;2.77;;
6336;SDS011;3201;49.962;11.618;2023-02-28T10:20:39;4.43;;;2.07;;
6336;SDS011;3201;49.962;11.618;2023-02-28T10:25:42;6.00;;;1.93;;
6336;SDS011;3201;49.962;11.618;2023-02-28T10:28:14;3.83;;;2.10;;
6336;SDS011;3201;49.962;11.618;2023-02-28T10:30:41;4.27;;;2.00;;
6336;SDS011;3201;49.962;11.618;2023-02-28T10:33:26;3.57;;;2.07;;
6336;SDS011;3201;49.962;11.618;2023-02-28T10:35:55;2.73;;;2.03;;
6336;SDS011;3201;49.962;11.618;2023-02-28T10:38:23;4.70;;;1.90;;
6336;SDS011;3201;49.962;11.618;2023-02-28T10:41:05;5.13;;;2.10;;
6336;SDS011;3201;49.962;11.618;2023-02-28T10:43:35;2.77;;;1.90;;
6336;SDS011;3201;49.962;11.618;2023-02-28T10:46:03;2.57;;;1.73;;
6336;SDS011;3201;49.962;11.618;2023-02-28T10:48:50;4.40;;;2.33;;
6336;SDS011;3201;49.962;11.618;2023-02-28T10:51:25;2.80;;;1.80;;
6336;SDS011;3201;49.962;11.618;2023-02-28T10:53:59;9.07;;;2.17;;
6336;SDS011;3201;49.962;11.618;2023-02-28T10:56:25;5.67;;;1.93;;
6336;SDS011;3201;49.962;11.618;2023-02-28T11:01:22;3.43;;;2.33;;
6336;SDS011;3201;49.962;11.618;2023-02-28T11:03:50;3.60;;;2.40;;
6336;SDS011;3201;49.962;11.618;2023-02-28T11:06:18;5.50;;;2.00;;
6336;SDS011;3201;49.962;11.618;2023-02-28T11:08:48;3.63;;;2.27;;
6336;SDS011;3201;49.962;11.618;2023-02-28T11:11:15;7.27;;;2.83;;
6336;SDS011;3201;49.962;11.618;2023-02-28T11:13:42;5.80;;;2.63;;
6336;SDS011;3201;49.962;11.618;2023-02-28T11:16:09;4.53;;;1.93;;
6336;SDS011;3201;49.962;11.618;2023-02-28T11:21:35;5.27;;;2.53;;
6336;SDS011;3201;49.962;11.618;2023-02-28T11:24:06;6.30;;;2.30;;
6336;SDS011;3201;49.962;11.618;2023-02-28T11:29:11;3.97;;;2.60;;
6336;SDS011;3201;49.962;11.618;2023-02-28T11:31:43;3.60;;;2.20;;
6336;SDS011;3201;49.962;11.618;2023-02-28T11:34:34;3.70;;;2.50;;
6336;SDS011;3201;49.962;11.618;2023-02-28T11:37:00;7.50;;;2.37;;
6336;SDS011;3201;49.962;11.618;2023-02-28T11:39:29;3.87;;;2.40;;
6336;SDS011;3201;49.962;11.618;2023-02-28T11:42:06;4.77;;;2.40;;
6336;SDS011;3201;49.962;11.618;2023-02-28T11:45:48;7.10;;;2.20;;
6336;SDS011;3201;49.962;11.618;2023-02-28T11:47:32;4.77;;;2.50;;
6336;SDS011;3201;49.962;11.618;2023-02-28T11:51:34;8.87;;;2.27;;
6336;SDS011;3201;49.962;11.618;2023-02-28T11:55:42;6.00;;;2.43;;
6336;SDS011;3201;49.962;11.618;2023-02-28T11:58:14;6.30;;;2.43;;
6336;SDS011;3201;49.962;11.618;2023-02-28T12:00:50;3.40;;;2.20;;
6336;SDS011;3201;49.962;11.618;2023-02-28T12:11:19;4.30;;;1.93;;
6336;SDS011;3201;49.962;11.618;2023-02-28T12:16:45;7.93;;;2.40;;
6336;SDS011;3201;49.962;11.618;2023-02-28T12:27:03;5.57;;;1.90;;
6336;SDS011;3201;49.962;11.618;2023-02-28T12:29:34;3.07;;;2.07;;
6336;SDS011;3201;49.962;11.618;2023-02-28T12:32:26;4.70;;;2.40;;
6336;SDS011;3201;49.962;11.618;2023-02-28T12:35:12;5.83;;;2.43;;
6336;SDS011;3201;49.962;11.618;2023-02-28T12:40:11;5.90;;;2.10;;
6336;SDS011;3201;49.962;11.618;2023-02-28T12:42:39;2.97;;;1.90;;
6336;SDS011;3201;49.962;11.618;2023-02-28T12:45:09;4.83;;;1.90;;
6336;SDS011;3201;49.962;11.618;2023-02-28T12:47:38;4.27;;;2.17;;
6336;SDS011;3201;49.962;11.618;2023-02-28T12:50:07;3.77;;;2.13;;
6336;SDS011;3201;49.962;11.618;2023-02-28T12:55:12;3.23;;;2.30;;
6336;SDS011;3201;49.962;11.618;2023-02-28T12:57:43;4.77;;;1.60;;
6336;SDS011;3201;49.962;11.618;2023-02-28T13:00:13;2.33;;;2.03;;
6336;SDS011;3201;49.962;11.618;2023-02-28T13:08:51;5.07;;;2.23;;
6336;SDS011;3201;49.962;11.618;2023-02-28T13:11:24;3.87;;;2.23;;
6336;SDS011;3201;49.962;11.618;2023-02-28T13:13:57;3.63;;;2.37;;
6336;SDS011;3201;49.962;11.618;2023-02-28T13:16:26;4.00;;;1.93;;
6336;SDS011;3201;49.962;11.618;2023-02-28T13:18:52;5.20;;;2.37;;
6336;SDS011;3201;49.962;11.618;2023-02-28T13:21:28;3.83;;;2.70;;
6336;SDS011;3201;49.962;11.618;2023-02-28T13:34:40;5.03;;;2.60;;
6336;SDS011;3201;49.962;11.618;2023-02-28T13:39:51;2.63;;;2.10;;
6336;SDS011;3201;49.962;11.618;2023-02-28T13:48:15;7.87;;;2.23;;
6336;SDS011;3201;49.962;11.618;2023-02-28T13:57:57;2.43;;;2.17;;
6336;SDS011;3201;49.962;11.618;2023-02-28T14:03:14;9.83;;;2.40;;
6336;SDS011;3201;49.962;11.618;2023-02-28T14:05:48;4.60;;;2.13;;
6336;SDS011;3201;49.962;11.618;2023-02-28T14:08:35;5.53;;;2.20;;
6336;SDS011;3201;49.962;11.618;2023-02-28T14:11:03;2.73;;;1.83;;
6336;SDS011;3201;49.962;11.618;2023-02-28T14:13:38;2.10;;;1.90;;
6336;SDS011;3201;49.962;11.618;2023-02-28T14:16:10;5.20;;;2.40;;
6336;SDS011;3201;49.962;11.618;2023-02-28T14:18:40;3.27;;;1.90;;
6336;SDS011;3201;49.962;11.618;2023-02-28T14:21:10;2.43;;;2.17;;
6336;SDS011;3201;49.962;11.618;2023-02-28T14:24:42;4.27;;;2.50;;
6336;SDS011;3201;49.962;11.618;2023-02-28T14:26:48;2.73;;;2.20;;
6336;SDS011;3201;49.962;11.618;2023-02-28T14:31:34;3.90;;;2.80;;
6336;SDS011;3201;49.962;11.618;2023-02-28T14:33:45;5.43;;;2.93;;
6336;SDS011;3201;49.962;11.618;2023-02-28T14:36:27;3.83;;;2.23;;
6336;SDS011;3201;49.962;11.618;2023-02-28T14:38:16;3.23;;;2.80;;
6336;SDS011;3201;49.962;11.618;2023-02-28T14:40:46;2.50;;;2.30;;
6336;SDS011;3201;49.962;11.618;2023-02-28T14:43:28;4.20;;;2.20;;
6336;SDS011;3201;49.962;11.618;2023-02-28T14:45:54;4.53;;;1.97;;
6336;SDS011;3201;49.962;11.618;2023-02-28T14:48:22;2.40;;;2.00;;
6336;SDS011;3201;49.962;11.618;2023-02-28T14:50:48;5.23;;;2.50;;
6336;SDS011;3201;49.962;11.618;2023-02-28T14:53:17;4.57;;;2.40;;
6336;SDS011;3201;49.962;11.618;2023-02-28T14:55:45;8.13;;;2.60;;
6336;SDS011;3201;49.962;11.618;2023-02-28T14:58:27;7.33;;;2.23;;
6336;SDS011;3201;49.962;11.618;2023-02-28T15:00:55;3.03;;;2.30;;
6336;SDS011;3201;49.962;11.618;2023-02-28T15:03:24;2.20;;;2.00;;
6336;SDS011;3201;49.962;11.618;2023-02-28T15:05:57;4.10;;;2.43;;
6336;SDS011;3201;49.962;11.618;2023-02-28T15:08:24;3.57;;;1.97;;
6336;SDS011;3201;49.962;11.618;2023-02-28T15:10:53;4.00;;;2.07;;
6336;SDS011;3201;49.962;11.618;2023-02-28T15:13:20;2.03;;;1.80;;
6336;SDS011;3201;49.962;11.618;2023-02-28T15:18:30;3.10;;;2.23;;
6336;SDS011;3201;49.962;11.618;2023-02-28T15:21:05;8.43;;;2.73;;
6336;SDS011;3201;49.962;11.618;2023-02-28T15:23:32;2.20;;;2.00;;
6336;SDS011;3201;49.962;11.618;2023-02-28T15:26:00;4.77;;;2.50;;
6336;SDS011;3201;49.962;11.618;2023-02-28T15:28:25;2.00;;;1.80;;
6336;SDS011;3201;49.962;11.618;2023-02-28T15:30:55;2.40;;;1.93;;
6336;SDS011;3201;49.962;11.618;2023-02-28T15:33:23;2.23;;;1.87;;
6336;SDS011;3201;49.962;11.618;2023-02-28T15:35:50;3.13;;;2.00;;
6336;SDS011;3201;49.962;11.618;2023-02-28T15:38:22;1.90;;;1.70;;
6336;SDS011;3201;49.962;11.618;2023-02-28T15:40:53;2.90;;;2.10;;
6336;SDS011;3201;49.962;11.618;2023-02-28T15:43:24;2.73;;;2.20;;
6336;SDS011;3201;49.962;11.618;2023-02-28T15:45:56;6.07;;;2.60;;
6336;SDS011;3201;49.962;11.618;2023-02-28T15:48:26;5.27;;;2.83;;
6336;SDS011;3201;49.962;11.618;2023-02-28T15:50:56;2.57;;;2.20;;
6336;SDS011;3201;49.962;11.618;2023-02-28T15:53:24;2.23;;;2.00;;
6336;SDS011;3201;49.962;11.618;2023-02-28T15:55:54;2.97;;;2.30;;
6336;SDS011;3201;49.962;11.618;2023-02-28T15:58:22;8.93;;;2.10;;
6336;SDS011;3201;49.962;11.618;2023-02-28T16:01:00;2.50;;;2.30;;
6336;SDS011;3201;49.962;11.618;2023-02-28T16:03:42;3.67;;;2.10;;
6336;SDS011;3201;49.962;11.618;2023-02-28T16:08:48;2.00;;;1.70;;
6336;SDS011;3201;49.962;11.618;2023-02-28T16:11:16;2.53;;;1.83;;
6336;SDS011;3201;49.962;11.618;2023-02-28T16:13:41;3.47;;;2.03;;
6336;SDS011;3201;49.962;11.618;2023-02-28T16:16:06;3.23;;;2.23;;
6336;SDS011;3201;49.962;11.618;2023-02-28T16:18:32;3.00;;;2.10;;
6336;SDS011;3201;49.962;11.618;2023-02-28T16:20:57;6.30;;;2.00;;
6336;SDS011;3201;49.962;11.618;2023-02-28T16:23:22;2.90;;;2.47;;
6336;SDS011;3201;49.962;11.618;2023-02-28T16:25:47;4.10;;;2.57;;
6336;SDS011;3201;49.962;11.618;2023-02-28T16:30:51;2.87;;;2.03;;
6336;SDS011;3201;49.962;11.618;2023-02-28T16:33:17;2.40;;;1.90;;
6336;SDS011;3201;49.962;11.618;2023-02-28T16:35:42;2.13;;;1.93;;
6336;SDS011;3201;49.962;11.618;2023-02-28T16:38:08;4.10;;;2.10;;
6336;SDS011;3201;49.962;11.618;2023-02-28T16:40:34;2.90;;;2.23;;
6336;SDS011;3201;49.962;11.618;2023-02-28T16:43:00;3.70;;;2.27;;
6336;SDS011;3201;49.962;11.618;2023-02-28T16:45:26;3.43;;;2.63;;
6336;SDS011;3201;49.962;11.618;2023-02-28T16:47:53;3.23;;;2.37;;
6336;SDS011;3201;49.962;11.618;2023-02-28T16:50:19;2.87;;;1.70;;
6336;SDS011;3201;49.962;11.618;2023-02-28T16:52:46;2.23;;;1.70;;
6336;SDS011;3201;49.962;11.618;2023-02-28T16:55:12;2.70;;;2.03;;
6336;SDS011;3201;49.962;11.618;2023-02-28T16:57:37;3.40;;;2.40;;
6336;SDS011;3201;49.962;11.618;2023-02-28T17:00:04;4.27;;;2.20;;
6336;SDS011;3201;49.962;11.618;2023-02-28T17:02:32;2.57;;;2.37;;
6336;SDS011;3201;49.962;11.618;2023-02-28T17:04:58;2.83;;;2.17;;